Time;durP1;ratioP1;P1;durP2;ratioP2;P2;SDS_P1;SDS_P2;PMS_P1;PMS_P2;Temp;Humidity;BMP_temperature;BMP_pressure;BME280_temperature;BME280_humidity;BME280_pressure;Samples;Min_cycle;Max_cycle;Signal;HPM_P1;HPM_P2
2022/05/09 00:01:51;;;;;;;1.70;1.50;;;10.20;98.70;;;;;;7371000;19;20422;-73
2022/05/09 00:04:17;;;;;;;3.47;1.90;;;10.20;99.20;;;;;;7373924;19;20369;-73
2022/05/09 00:06:42;;;;;;;3.80;1.85;;;10.20;99.20;;;;;;7375186;19;20364;-73
2022/05/09 00:09:08;;;;;;;5.13;1.90;;;10.10;99.80;;;;;;7375756;19;20694;-73
2022/05/09 00:11:34;;;;;;;2.22;1.50;;;10.10;99.90;;;;;;7374285;19;20328;-73
2022/05/09 00:14:00;;;;;;;3.57;2.00;;;10.10;99.80;;;;;;7375197;19;20344;-73
2022/05/09 00:16:27;;;;;;;2.10;1.70;;;10.00;99.90;;;;;;7376971;19;20382;-74
2022/05/09 00:18:53;;;;;;;2.22;1.80;;;9.90;99.90;;;;;;7378737;19;20324;-73
2022/05/09 00:21:19;;;;;;;1.63;1.50;;;9.90;99.90;;;;;;7350093;19;20351;-73
2022/05/09 00:23:45;;;;;;;2.30;1.75;;;9.80;99.90;;;;;;7375850;19;20375;-74
2022/05/09 00:26:10;;;;;;;1.90;1.60;;;9.70;99.90;;;;;;7375438;19;20849;-72
2022/05/09 00:28:36;;;;;;;2.63;1.73;;;9.70;99.90;;;;;;7376812;19;20344;-72
2022/05/09 00:31:04;;;;;;;3.38;1.85;;;9.60;99.90;;;;;;7375332;19;21291;-74
2022/05/09 00:33:30;;;;;;;4.03;2.20;;;9.60;99.90;;;;;;7376050;19;20304;-73
2022/05/09 00:35:55;;;;;;;4.33;2.00;;;9.50;99.90;;;;;;7371539;19;20345;-73
2022/05/09 00:38:21;;;;;;;5.30;2.40;;;9.40;99.90;;;;;;7375179;19;20345;-73
2022/05/09 00:43:34;;;;;;;4.85;2.17;;;9.20;99.90;;;;;;7380150;19;20313;-73
2022/05/09 00:46:02;;;;;;;2.85;1.70;;;9.20;99.90;;;;;;7378295;19;20341;-72
2022/05/09 00:48:28;;;;;;;2.58;1.60;;;9.10;99.90;;;;;;7381178;19;20341;-73
2022/05/09 00:50:55;;;;;;;2.60;1.90;;;9.10;99.90;;;;;;7383649;19;20375;-73
2022/05/09 00:53:20;;;;;;;2.50;1.80;;;9.00;99.90;;;;;;7380805;19;20872;-72
2022/05/09 00:55:57;;;;;;;2.00;1.70;;;9.00;99.90;;;;;;7378681;19;20316;-73
2022/05/09 00:58:28;;;;;;;3.10;1.80;;;9.00;99.90;;;;;;7378746;19;20431;-73
2022/05/09 01:00:54;;;;;;;3.05;2.10;;;8.90;99.90;;;;;;7381170;19;20729;-72
2022/05/09 01:03:35;;;;;;;1.85;1.75;;;8.70;99.90;;;;;;7379788;19;20336;-73
2022/05/09 01:06:01;;;;;;;4.13;2.30;;;8.70;99.90;;;;;;7380047;19;20415;-73
2022/05/09 01:08:26;;;;;;;3.03;2.03;;;8.60;99.90;;;;;;7386154;19;20356;-73
2022/05/09 01:10:52;;;;;;;2.30;1.60;;;8.50;99.90;;;;;;7381948;19;20342;-73
2022/05/09 01:13:19;;;;;;;3.90;2.05;;;8.40;99.90;;;;;;7381230;19;20355;-73
2022/05/09 01:15:47;;;;;;;2.53;1.95;;;8.40;99.90;;;;;;7379121;19;20339;-73
2022/05/09 01:18:12;;;;;;;2.53;1.85;;;8.40;99.90;;;;;;7381363;19;20332;-73
2022/05/09 01:20:38;;;;;;;3.10;2.10;;;8.30;99.90;;;;;;7380074;19;20353;-72
2022/05/09 01:23:05;;;;;;;4.03;1.70;;;8.10;99.90;;;;;;7380596;19;20400;-74
2022/05/09 01:25:32;;;;;;;3.03;2.00;;;8.00;99.90;;;;;;7380490;19;20400;-73
2022/05/09 01:27:59;;;;;;;2.67;1.95;;;8.00;99.90;;;;;;7382834;19;20325;-73
2022/05/09 01:30:31;;;;;;;5.18;2.20;;;8.00;99.90;;;;;;7381306;19;20367;-73
2022/05/09 01:33:07;;;;;;;3.30;2.20;;;8.00;99.90;;;;;;7380860;19;20349;-72
2022/05/09 01:35:45;;;;;;;2.77;2.17;;;8.00;99.90;;;;;;7276585;19;2004447;-72
2022/05/09 01:38:16;;;;;;;2.88;2.03;;;7.90;99.90;;;;;;7279818;19;2004839;-72
2022/05/09 01:40:43;;;;;;;2.23;1.87;;;7.90;99.90;;;;;;7382961;19;21062;-73
2022/05/09 01:43:09;;;;;;;2.15;1.90;;;7.90;99.90;;;;;;7379564;19;20403;-73
2022/05/09 01:45:35;;;;;;;3.53;2.20;;;7.80;99.90;;;;;;7379098;19;20331;-72
2022/05/09 01:50:44;;;;;;;2.07;1.87;;;7.60;99.90;;;;;;7381775;19;20355;-73
2022/05/09 01:53:10;;;;;;;4.47;2.25;;;7.60;99.90;;;;;;7379933;19;20349;-72
2022/05/09 01:55:36;;;;;;;4.27;1.97;;;7.60;99.90;;;;;;7377124;19;20316;-74
2022/05/09 01:58:01;;;;;;;3.30;2.30;;;7.50;99.90;;;;;;7382345;19;20328;-72
2022/05/09 02:00:28;;;;;;;2.53;1.90;;;7.40;99.90;;;;;;7376607;19;22182;-72
2022/05/09 02:02:54;;;;;;;3.47;2.10;;;7.30;99.90;;;;;;7380504;19;20373;-72
2022/05/09 02:05:19;;;;;;;3.60;2.00;;;7.30;99.90;;;;;;7377842;19;20353;-74
2022/05/09 02:07:45;;;;;;;3.57;2.30;;;7.30;99.90;;;;;;7385084;19;20353;-74
2022/05/09 02:10:11;;;;;;;2.70;2.30;;;7.30;99.90;;;;;;7381679;19;20458;-73
2022/05/09 02:12:36;;;;;;;2.93;1.83;;;7.30;99.90;;;;;;7380331;19;20340;-72
2022/05/09 02:15:03;;;;;;;2.60;1.95;;;7.20;99.90;;;;;;7376406;19;21441;-72
2022/05/09 02:17:30;;;;;;;4.70;2.50;;;7.20;99.90;;;;;;7382048;19;20339;-73
2022/05/09 02:19:56;;;;;;;4.22;2.10;;;7.10;99.90;;;;;;7379353;19;20328;-72
2022/05/09 02:22:21;;;;;;;3.50;2.20;;;7.10;99.90;;;;;;7380894;19;20371;-73
2022/05/09 02:24:47;;;;;;;3.00;1.70;;;7.10;99.90;;;;;;7379951;19;21267;-72
2022/05/09 02:27:13;;;;;;;2.75;2.30;;;7.20;99.90;;;;;;7378484;19;20332;-73
2022/05/09 02:29:40;;;;;;;2.75;1.80;;;7.10;99.90;;;;;;7380665;19;20312;-73
2022/05/09 02:32:06;;;;;;;4.13;2.20;;;7.00;99.90;;;;;;7379705;19;20333;-74
2022/05/09 02:34:32;;;;;;;4.32;2.50;;;6.90;99.90;;;;;;7356417;19;20332;-73
2022/05/09 02:36:58;;;;;;;4.23;2.00;;;6.90;99.90;;;;;;7379713;19;20357;-73
2022/05/09 02:39:23;;;;;;;3.58;2.38;;;6.90;99.90;;;;;;7382346;19;20464;-73
2022/05/09 02:41:57;;;;;;;3.97;2.40;;;6.80;99.90;;;;;;7378960;19;20912;-74
2022/05/09 02:44:22;;;;;;;2.53;1.80;;;6.90;99.90;;;;;;7377616;19;20716;-73
2022/05/09 02:46:48;;;;;;;6.77;2.47;;;6.80;99.90;;;;;;7379533;19;20432;-72
2022/05/09 02:49:13;;;;;;;2.90;2.20;;;6.80;99.90;;;;;;7378992;19;20345;-73
2022/05/09 02:51:39;;;;;;;3.15;2.30;;;6.70;99.90;;;;;;7381696;19;20333;-73
2022/05/09 02:54:04;;;;;;;2.70;1.73;;;6.70;99.90;;;;;;7378903;19;20666;-72
2022/05/09 02:56:30;;;;;;;3.80;2.50;;;6.70;99.90;;;;;;7381380;19;20345;-75
2022/05/09 02:58:55;;;;;;;4.57;1.97;;;6.70;99.90;;;;;;7384151;19;20317;-72
2022/05/09 03:01:21;;;;;;;3.00;2.03;;;6.60;99.90;;;;;;7376628;19;20702;-72
2022/05/09 03:06:32;;;;;;;1.90;1.70;;;6.50;99.90;;;;;;7279124;19;2004321;-73
2022/05/09 03:08:57;;;;;;;2.70;2.08;;;6.50;99.90;;;;;;7382261;19;20320;-72
2022/05/09 03:11:23;;;;;;;2.20;2.00;;;6.50;99.90;;;;;;7379068;19;20916;-72
2022/05/09 03:13:49;;;;;;;1.63;1.53;;;6.40;99.90;;;;;;7376160;19;20880;-72
2022/05/09 03:16:16;;;;;;;4.77;1.93;;;6.40;99.90;;;;;;7375827;19;20323;-72
2022/05/09 03:18:41;;;;;;;3.10;2.28;;;6.40;99.90;;;;;;7380770;19;20381;-72
2022/05/09 03:21:07;;;;;;;2.57;2.00;;;6.50;99.90;;;;;;7361317;19;21005;-73
2022/05/09 03:23:32;;;;;;;3.87;2.03;;;6.50;99.90;;;;;;7371609;19;20337;-73
2022/05/09 03:25:59;;;;;;;4.80;2.00;;;6.50;99.90;;;;;;7374544;19;20356;-73
2022/05/09 03:28:28;;;;;;;2.20;1.88;;;6.60;99.90;;;;;;7382439;19;20333;-73
2022/05/09 03:30:54;;;;;;;2.75;2.10;;;6.60;99.90;;;;;;7376499;19;20320;-72
2022/05/09 03:33:20;;;;;;;2.60;1.90;;;6.60;99.90;;;;;;7376027;19;20372;-72
2022/05/09 03:35:46;;;;;;;4.82;2.03;;;6.70;99.90;;;;;;7375895;19;20313;-72
2022/05/09 03:38:12;;;;;;;2.60;2.13;;;6.70;99.90;;;;;;7380536;19;20356;-73
2022/05/09 03:40:38;;;;;;;3.30;2.20;;;6.70;99.90;;;;;;7379730;19;20336;-73
2022/05/09 03:43:05;;;;;;;4.03;2.50;;;6.80;99.90;;;;;;7381038;19;20317;-74
2022/05/09 03:45:31;;;;;;;3.45;2.30;;;6.80;99.90;;;;;;7379767;19;20349;-73
2022/05/09 03:47:57;;;;;;;2.63;1.92;;;6.90;99.90;;;;;;7385527;19;20331;-73
2022/05/09 03:50:23;;;;;;;3.95;2.00;;;6.90;99.90;;;;;;7383546;19;20348;-71
2022/05/09 03:52:48;;;;;;;2.67;2.07;;;6.90;99.90;;;;;;7377854;19;20356;-73
2022/05/09 03:55:14;;;;;;;2.78;2.08;;;7.00;99.90;;;;;;7380440;19;20349;-72
2022/05/09 03:57:52;;;;;;;4.35;2.22;;;7.00;99.90;;;;;;7381059;19;20345;-72
2022/05/09 04:00:21;;;;;;;3.33;2.30;;;7.00;99.90;;;;;;7379433;19;20352;-73
2022/05/09 04:02:47;;;;;;;3.92;2.10;;;7.00;99.90;;;;;;7380574;19;20412;-72
2022/05/09 04:05:17;;;;;;;5.53;2.50;;;7.00;99.90;;;;;;7378842;19;20369;-72
2022/05/09 04:07:48;;;;;;;4.15;2.40;;;7.10;99.90;;;;;;7381146;19;20398;-73
2022/05/09 04:10:14;;;;;;;3.67;2.33;;;7.00;99.90;;;;;;7378088;19;20352;-74
2022/05/09 04:12:40;;;;;;;2.22;2.03;;;7.10;99.90;;;;;;7373812;19;20431;-75
2022/05/09 04:17:51;;;;;;;2.20;1.98;;;7.20;99.90;;;;;;7274394;19;2004468;-75
2022/05/09 04:20:16;;;;;;;2.80;2.50;;;7.20;99.90;;;;;;7383806;19;20340;-73
2022/05/09 04:22:42;;;;;;;3.33;2.38;;;7.30;99.90;;;;;;7382398;19;20327;-73
2022/05/09 04:25:08;;;;;;;3.43;2.23;;;7.30;99.90;;;;;;7385657;19;20329;-73
2022/05/09 04:27:34;;;;;;;2.95;2.38;;;7.30;99.90;;;;;;7387304;19;20348;-73
2022/05/09 04:30:00;;;;;;;2.65;2.20;;;7.40;99.90;;;;;;7382707;19;20335;-73
2022/05/09 04:32:25;;;;;;;5.30;2.67;;;7.50;99.90;;;;;;7386107;19;20340;-73
2022/05/09 04:34:51;;;;;;;4.97;2.27;;;7.50;99.90;;;;;;7385353;19;20308;-73
2022/05/09 04:37:16;;;;;;;2.50;2.30;;;7.60;99.90;;;;;;7384775;19;20336;-74
2022/05/09 04:39:42;;;;;;;3.45;2.25;;;7.60;99.90;;;;;;7385720;19;20455;-74
2022/05/09 04:42:09;;;;;;;3.13;2.10;;;7.70;99.90;;;;;;7387592;19;20441;-76
2022/05/09 04:44:35;;;;;;;3.75;2.20;;;7.80;99.90;;;;;;7382481;19;20335;-74
2022/05/09 04:47:00;;;;;;;4.53;2.88;;;7.90;99.90;;;;;;7382677;19;20332;-74
2022/05/09 04:49:26;;;;;;;3.00;2.40;;;8.00;99.90;;;;;;7378148;19;20357;-75
2022/05/09 04:51:51;;;;;;;3.08;2.47;;;8.10;99.90;;;;;;7376312;19;20789;-74
2022/05/09 04:54:17;;;;;;;4.33;2.80;;;8.20;99.90;;;;;;7379555;19;20360;-75
2022/05/09 04:56:43;;;;;;;4.43;2.90;;;8.30;99.90;;;;;;7378573;19;20343;-76
2022/05/09 04:59:10;;;;;;;3.90;2.53;;;8.30;99.90;;;;;;7382254;19;20892;-75
2022/05/09 05:01:36;;;;;;;3.67;2.47;;;8.60;99.90;;;;;;7373432;19;20374;-76
2022/05/09 05:04:04;;;;;;;3.80;2.88;;;8.70;99.90;;;;;;7375034;19;20332;-75
2022/05/09 05:06:30;;;;;;;4.82;2.60;;;8.70;99.90;;;;;;7375442;19;20343;-75
2022/05/09 05:08:56;;;;;;;3.42;2.58;;;8.80;99.90;;;;;;7376341;19;20325;-75
2022/05/09 05:11:22;;;;;;;4.67;2.70;;;9.00;99.90;;;;;;7373438;19;20347;-76
2022/05/09 05:13:47;;;;;;;2.93;2.40;;;9.10;99.90;;;;;;7373461;19;20360;-75
2022/05/09 05:16:13;;;;;;;3.03;2.70;;;9.20;99.90;;;;;;7371728;19;20358;-75
2022/05/09 05:18:39;;;;;;;4.30;2.70;;;9.30;99.90;;;;;;7379134;19;20332;-75
2022/05/09 05:21:09;;;;;;;3.53;3.17;;;9.40;99.90;;;;;;7378848;19;20366;-76
2022/05/09 05:23:36;;;;;;;4.57;3.20;;;9.60;99.90;;;;;;7378584;19;20349;-76
2022/05/09 05:26:02;;;;;;;3.95;3.28;;;9.80;99.90;;;;;;7373848;19;20317;-78
2022/05/09 05:28:27;;;;;;;4.72;3.33;;;9.80;99.90;;;;;;7377617;19;20337;-76
2022/05/09 05:30:53;;;;;;;6.47;3.53;;;10.00;99.90;;;;;;7384071;19;20774;-77
2022/05/09 05:33:21;;;;;;;3.83;3.17;;;10.00;99.90;;;;;;7380130;19;20347;-76
2022/05/09 05:35:47;;;;;;;5.15;3.42;;;10.20;99.90;;;;;;7376490;19;20325;-77
2022/05/09 05:38:13;;;;;;;4.90;3.70;;;10.30;99.90;;;;;;7376599;19;20340;-77
2022/05/09 05:40:39;;;;;;;5.75;3.97;;;10.50;99.90;;;;;;7379191;19;20348;-77
2022/05/09 05:43:04;;;;;;;4.90;3.60;;;10.50;99.90;;;;;;7380454;19;20853;-76
2022/05/09 05:45:30;;;;;;;6.60;3.90;;;10.70;99.90;;;;;;7378918;19;20376;-76
2022/05/09 05:47:56;;;;;;;5.00;3.95;;;10.70;99.90;;;;;;7380074;19;20316;-77
2022/05/09 05:50:22;;;;;;;4.67;3.30;;;10.80;99.90;;;;;;7379796;19;20416;-77
2022/05/09 05:52:48;;;;;;;7.63;4.18;;;11.00;99.90;;;;;;7380494;19;20309;-77
2022/05/09 05:55:14;;;;;;;7.30;4.73;;;11.20;99.90;;;;;;7377993;19;20337;-78
2022/05/09 05:57:41;;;;;;;7.25;4.05;;;11.10;99.90;;;;;;7379095;19;20416;-77
2022/05/09 06:00:13;;;;;;;8.35;4.05;;;11.10;99.90;;;;;;7379205;19;20849;-77
2022/05/09 06:02:42;;;;;;;5.82;4.03;;;11.10;99.90;;;;;;7378589;19;20392;-77
2022/05/09 06:05:09;;;;;;;6.47;3.75;;;11.20;99.90;;;;;;7377189;19;20396;-77
2022/05/09 06:07:35;;;;;;;5.07;3.42;;;11.30;99.90;;;;;;7382249;19;20309;-76
2022/05/09 06:10:01;;;;;;;7.47;4.00;;;11.40;99.90;;;;;;7377399;19;20352;-76
2022/05/09 06:12:28;;;;;;;7.32;4.18;;;11.60;99.90;;;;;;7379347;19;20334;-75
2022/05/09 06:17:38;;;;;;;5.80;4.30;;;11.90;99.90;;;;;;7277215;19;2004349;-76
2022/05/09 06:20:05;;;;;;;5.88;4.05;;;12.00;99.90;;;;;;7381153;19;20384;-76
2022/05/09 06:22:31;;;;;;;4.63;4.00;;;12.00;99.90;;;;;;7379453;19;20337;-75
2022/05/09 06:24:58;;;;;;;5.05;3.60;;;12.10;99.90;;;;;;7378095;19;20367;-76
2022/05/09 06:27:24;;;;;;;5.95;3.92;;;12.20;99.90;;;;;;7383545;19;20416;-76
2022/05/09 06:29:49;;;;;;;6.28;4.25;;;12.30;99.90;;;;;;7377431;19;20354;-77
2022/05/09 06:32:18;;;;;;;5.80;3.63;;;12.40;99.90;;;;;;7379634;19;20333;-76
2022/05/09 06:34:47;;;;;;;6.22;3.50;;;12.60;99.90;;;;;;7378949;19;20324;-78
2022/05/09 06:37:13;;;;;;;5.80;3.90;;;12.90;99.90;;;;;;7379500;19;20336;-76
2022/05/09 06:39:38;;;;;;;3.97;3.58;;;13.00;99.90;;;;;;7378281;19;20345;-78
2022/05/09 06:42:04;;;;;;;5.30;3.80;;;13.10;99.90;;;;;;7377001;19;20943;-76
2022/05/09 06:44:30;;;;;;;6.90;4.05;;;13.20;99.90;;;;;;7374455;19;20383;-76
2022/05/09 06:46:56;;;;;;;5.57;3.63;;;13.30;99.90;;;;;;7378894;19;20367;-76
2022/05/09 06:49:22;;;;;;;5.10;3.57;;;13.40;99.90;;;;;;7379443;19;20363;-77
2022/05/09 06:51:48;;;;;;;4.73;4.03;;;13.60;99.90;;;;;;7376790;19;20312;-77
2022/05/09 06:54:16;;;;;;;6.38;4.15;;;13.70;99.90;;;;;;7377214;19;20316;-78
2022/05/09 06:56:42;;;;;;;6.25;4.07;;;13.80;99.90;;;;;;7372311;19;20341;-76
2022/05/09 06:59:07;;;;;;;7.05;4.03;;;13.90;99.90;;;;;;7378707;19;20380;-77
2022/05/09 07:01:35;;;;;;;5.03;3.72;;;14.00;99.90;;;;;;7376201;19;20446;-77
2022/05/09 07:04:01;;;;;;;5.05;3.97;;;14.20;99.90;;;;;;7371305;19;20336;-77
2022/05/09 07:06:26;;;;;;;4.75;3.85;;;14.30;99.90;;;;;;7375467;19;20369;-76
2022/05/09 07:08:52;;;;;;;5.50;3.60;;;14.40;99.90;;;;;;7379971;19;21192;-77
2022/05/09 07:11:18;;;;;;;6.15;4.55;;;14.50;99.90;;;;;;7383996;19;20320;-77
2022/05/09 07:13:44;;;;;;;5.53;3.87;;;14.70;99.90;;;;;;7381359;19;20329;-77
2022/05/09 07:16:11;;;;;;;5.68;3.35;;;14.90;99.90;;;;;;7375216;19;20976;-77
2022/05/09 07:18:38;;;;;;;5.13;3.70;;;15.10;99.90;;;;;;7377490;19;20399;-76
2022/05/09 07:21:05;;;;;;;4.00;3.15;;;15.40;99.90;;;;;;7376589;19;20404;-77
2022/05/09 07:23:30;;;;;;;4.55;3.63;;;15.70;99.90;;;;;;7376534;19;20349;-76
2022/05/09 07:25:56;;;;;;;4.10;3.28;;;15.80;99.90;;;;;;7375627;19;20687;-76
2022/05/09 07:28:22;;;;;;;6.63;3.33;;;15.90;99.90;;;;;;7378175;19;20526;-76
2022/05/09 07:30:48;;;;;;;7.50;4.30;;;16.10;99.90;;;;;;7376661;19;20331;-77
2022/05/09 07:33:15;;;;;;;3.90;3.50;;;16.00;99.90;;;;;;7375469;19;20332;-76
2022/05/09 07:35:42;;;;;;;3.93;3.60;;;16.00;99.90;;;;;;7377030;19;20317;-77
2022/05/09 07:38:08;;;;;;;4.53;3.55;;;16.00;99.90;;;;;;7376817;19;20317;-77
2022/05/09 07:40:34;;;;;;;4.75;3.70;;;16.10;99.90;;;;;;7375238;19;20345;-77
2022/05/09 07:42:59;;;;;;;4.83;3.67;;;16.40;99.90;;;;;;7375648;19;20301;-78
2022/05/09 07:45:25;;;;;;;4.60;3.53;;;16.30;99.90;;;;;;7373664;19;20344;-78
2022/05/09 07:47:51;;;;;;;5.23;3.60;;;16.30;99.90;;;;;;7377471;19;20315;-78
2022/05/09 07:50:17;;;;;;;4.13;3.65;;;16.60;99.90;;;;;;7379790;19;20320;-79
2022/05/09 07:52:44;;;;;;;5.93;3.97;;;16.80;99.90;;;;;;7380600;19;20316;-79
2022/05/09 07:55:10;;;;;;;3.90;3.50;;;17.00;99.90;;;;;;7378751;19;20365;-78
2022/05/09 07:57:36;;;;;;;14.93;10.27;;;17.20;99.90;;;;;;7380041;19;20341;-81
2022/05/09 08:00:05;;;;;;;4.20;3.77;;;17.30;99.90;;;;;;7379605;19;20316;-78
2022/05/09 08:02:32;;;;;;;4.13;3.38;;;17.40;99.90;;;;;;7380866;19;20325;-79
2022/05/09 08:04:58;;;;;;;6.93;3.90;;;17.60;99.90;;;;;;7377275;19;20335;-80
2022/05/09 08:07:25;;;;;;;4.43;3.50;;;17.80;99.90;;;;;;7364241;19;20332;-79
2022/05/09 08:09:51;;;;;;;5.32;3.30;;;17.80;99.90;;;;;;7378789;19;20320;-81
2022/05/09 08:12:17;;;;;;;4.88;3.80;;;18.00;99.90;;;;;;7378278;19;20389;-80
2022/05/09 08:14:43;;;;;;;4.23;3.30;;;18.00;99.90;;;;;;7375257;19;20324;-79
2022/05/09 08:17:11;;;;;;;7.93;3.75;;;18.50;99.90;;;;;;7377938;19;20340;-80
2022/05/09 08:19:38;;;;;;;4.05;3.58;;;18.60;99.90;;;;;;7376821;19;20708;-80
2022/05/09 08:22:04;;;;;;;4.37;3.60;;;18.90;99.90;;;;;;7377301;19;20312;-80
2022/05/09 08:24:31;;;;;;;4.22;3.35;;;19.20;99.90;;;;;;7373773;19;20332;-79
2022/05/09 08:26:57;;;;;;;5.88;3.80;;;19.40;99.90;;;;;;7380509;19;20332;-84
2022/05/09 08:29:23;;;;;;;5.03;3.88;;;19.30;99.90;;;;;;7376514;19;20349;-80
2022/05/09 08:31:49;;;;;;;4.27;3.03;;;19.60;99.90;;;;;;7376830;19;20320;-77
2022/05/09 08:34:15;;;;;;;5.07;3.13;;;19.60;99.90;;;;;;7386005;19;20316;-81
2022/05/09 08:36:53;;;;;;;3.50;3.20;;;19.80;99.90;;;;;;7384485;19;20380;-79
2022/05/09 08:39:24;;;;;;;4.70;3.33;;;20.10;99.90;;;;;;7278490;19;2004274;-83
2022/05/09 08:42:03;;;;;;;3.70;3.28;;;20.20;99.90;;;;;;7287083;19;2004478;-78
2022/05/09 08:44:31;;;;;;;4.90;3.47;;;20.20;99.90;;;;;;7286230;19;2004363;-81
2022/05/09 08:47:21;;;;;;;4.13;3.33;;;20.30;99.90;;;;;;7392566;19;20366;-80
2022/05/09 08:50:13;;;;;;;5.78;3.40;;;20.80;99.90;;;;;;7267093;19;2004598;-81
2022/05/09 08:52:42;;;;;;;4.80;3.45;;;21.00;99.90;;;;;;7274154;19;2004413;-83
2022/05/09 08:55:09;;;;;;;6.93;3.53;;;21.10;99.90;;;;;;7266646;19;2004751;-79
2022/05/09 08:57:47;;;;;;;7.15;3.40;;;21.30;99.90;;;;;;7392879;19;20332;-86
2022/05/09 09:00:15;;;;;;;3.30;2.90;;;21.30;99.90;;;;;;7279329;19;2004411;-80
2022/05/09 09:02:43;;;;;;;4.35;3.10;;;21.60;99.90;;;;;;7381942;19;20716;-81
2022/05/09 09:05:11;;;;;;;5.03;3.13;;;21.80;99.50;;;;;;7381015;19;20347;-78
2022/05/09 09:07:40;;;;;;;4.78;3.40;;;21.90;99.90;;;;;;7391786;19;20324;-81
2022/05/09 09:10:15;;;;;;;3.25;2.95;;;21.90;99.50;;;;;;7391833;19;20321;-82
2022/05/09 09:12:53;;;;;;;4.00;2.97;;;22.00;98.00;;;;;;7404698;19;20348;-82
2022/05/09 09:15:37;;;;;;;4.07;2.70;;;22.10;97.60;;;;;;7400538;19;20341;-85
2022/05/09 09:18:34;;;;;;;4.60;3.10;;;22.20;97.10;;;;;;7406049;19;20329;-79
2022/05/09 09:21:06;;;;;;;4.30;3.05;;;22.20;96.80;;;;;;7289201;19;2006057;-81
2022/05/09 09:23:38;;;;;;;4.35;3.05;;;22.50;96.10;;;;;;7392546;19;20411;-82
2022/05/09 09:26:40;;;;;;;5.28;2.95;;;23.20;95.90;;;;;;7389860;19;20828;-78
2022/05/09 09:29:16;;;;;;;5.40;2.85;;;23.30;92.20;;;;;;7282585;19;2004512;-78
2022/05/09 09:31:44;;;;;;;4.07;3.20;;;23.50;91.00;;;;;;7384044;19;20329;-78
2022/05/09 09:34:34;;;;;;;5.38;2.90;;;23.00;90.30;;;;;;7382975;19;20410;-78
2022/05/09 09:37:11;;;;;;;3.37;2.60;;;23.00;91.20;;;;;;7279648;19;2004428;-78
2022/05/09 09:39:37;;;;;;;3.50;2.97;;;23.20;90.90;;;;;;7277381;19;2004241;-79
2022/05/09 09:42:04;;;;;;;5.80;2.45;;;23.00;90.40;;;;;;7379265;19;20416;-78
2022/05/09 09:44:31;;;;;;;3.83;2.85;;;23.30;89.10;;;;;;7380208;19;20328;-78
2022/05/09 09:47:05;;;;;;;5.00;2.88;;;23.20;88.30;;;;;;7381151;19;20313;-78
2022/05/09 09:49:33;;;;;;;4.50;2.92;;;23.20;86.60;;;;;;7379337;19;20300;-80
2022/05/09 09:51:58;;;;;;;4.13;2.88;;;23.40;90.40;;;;;;7381388;19;20469;-80
2022/05/09 09:54:29;;;;;;;4.78;2.72;;;23.70;86.40;;;;;;7382395;19;20332;-81
2022/05/09 09:56:55;;;;;;;5.37;2.70;;;24.30;87.40;;;;;;7277589;19;2004317;-79
2022/05/09 09:59:23;;;;;;;4.38;2.42;;;25.00;82.50;;;;;;7383228;19;20333;-79
2022/05/09 10:02:08;;;;;;;3.70;2.55;;;25.10;83.50;;;;;;7377634;19;20332;-81
2022/05/09 10:04:33;;;;;;;4.13;2.60;;;25.30;78.00;;;;;;7381283;19;20349;-80
2022/05/09 10:07:03;;;;;;;5.63;2.38;;;25.60;79.20;;;;;;7383866;19;20315;-78
2022/05/09 10:10:10;;;;;;;4.55;2.65;;;25.80;78.30;;;;;;7379853;19;20920;-80
2022/05/09 10:12:48;;;;;;;5.70;2.80;;;26.10;73.50;;;;;;7281133;19;2004356;-85
2022/05/09 10:15:31;;;;;;;3.73;2.60;;;26.10;72.70;;;;;;7376226;19;20308;-80
2022/05/09 10:17:58;;;;;;;2.85;2.08;;;26.20;72.30;;;;;;7282696;19;2004470;-84
2022/05/09 10:20:27;;;;;;;4.43;1.92;;;26.10;65.70;;;;;;7384643;19;20896;-79
2022/05/09 10:25:59;;;;;;;4.28;2.17;;;26.50;64.40;;;;;;7379465;19;20325;-82
2022/05/09 10:28:53;;;;;;;2.45;2.00;;;25.70;58.70;;;;;;7281432;19;2004496;-85
2022/05/09 10:31:31;;;;;;;3.45;2.28;;;25.50;60.00;;;;;;7385390;19;20344;-81
2022/05/09 10:34:01;;;;;;;3.45;1.92;;;25.60;60.10;;;;;;7400353;19;20309;-80
2022/05/09 10:37:01;;;;;;;2.45;1.92;;;25.50;58.70;;;;;;7401019;19;20395;-84
2022/05/09 10:39:53;;;;;;;2.92;1.67;;;25.80;56.90;;;;;;7277281;19;2004517;-85
2022/05/09 10:42:26;;;;;;;2.17;1.80;;;26.30;56.00;;;;;;7287927;19;2004508;-80
2022/05/09 10:44:59;;;;;;;2.10;1.90;;;25.80;52.60;;;;;;7389214;19;20329;-85
2022/05/09 10:47:36;;;;;;;2.20;2.00;;;25.90;53.20;;;;;;7395071;19;20695;-83
2022/05/09 10:50:15;;;;;;;3.67;2.10;;;26.00;55.10;;;;;;7390746;19;20458;-82
2022/05/09 10:53:26;;;;;;;2.60;1.70;;;26.20;53.90;;;;;;7284897;19;2004443;-79
2022/05/09 10:56:05;;;;;;;2.78;1.75;;;26.90;53.40;;;;;;7259617;19;2004215;-81
2022/05/09 10:58:41;;;;;;;3.15;2.00;;;26.70;51.20;;;;;;7386852;19;20341;-81
2022/05/09 11:01:34;;;;;;;2.70;2.08;;;26.90;49.90;;;;;;7378098;19;20327;-82
2022/05/09 11:04:00;;;;;;;5.35;2.42;;;26.80;51.90;;;;;;7382943;19;20428;-83
2022/05/09 11:06:31;;;;;;;2.00;1.80;;;26.80;53.30;;;;;;7384263;19;20352;-80
2022/05/09 11:09:12;;;;;;;4.18;2.40;;;27.00;53.60;;;;;;7388523;19;20312;-81
2022/05/09 11:12:05;;;;;;;2.72;1.92;;;27.20;52.20;;;;;;7296934;19;2004529;-82
2022/05/09 11:14:45;;;;;;;4.47;2.20;;;27.40;51.40;;;;;;7397051;19;20370;-83
2022/05/09 11:17:42;;;;;;;5.63;2.20;;;27.70;51.70;;;;;;7401021;19;20305;-80
2022/05/09 11:20:20;;;;;;;2.42;1.70;;;28.20;52.40;;;;;;7299874;19;2004617;-80
2022/05/09 11:22:57;;;;;;;2.03;1.67;;;28.10;49.80;;;;;;7395696;19;20333;-81
2022/05/09 11:25:54;;;;;;;4.75;2.05;;;28.20;50.00;;;;;;7393141;19;20344;-78
2022/05/09 11:28:49;;;;;;;2.70;1.87;;;28.60;46.90;;;;;;7283743;19;2004980;-79
2022/05/09 11:31:37;;;;;;;3.70;1.90;;;29.00;47.40;;;;;;7287027;19;2004562;-85
2022/05/09 11:34:14;;;;;;;3.90;1.80;;;29.50;47.70;;;;;;7289348;19;2004508;-81
2022/05/09 11:37:04;;;;;;;2.90;2.15;;;28.40;45.70;;;;;;7387924;19;21007;-83
2022/05/09 11:39:36;;;;;;;2.28;1.90;;;29.20;47.90;;;;;;7291621;19;2004335;-82
2022/05/09 11:45:52;;;;;;;5.15;2.13;;;29.00;46.10;;;;;;7294987;19;2004628;-85
2022/05/09 11:48:35;;;;;;;3.25;2.25;;;29.10;48.30;;;;;;7300724;19;2004752;-80
2022/05/09 11:51:12;;;;;;;4.17;2.27;;;29.20;48.60;;;;;;7287045;19;2004669;-83
2022/05/09 11:53:41;;;;;;;4.70;2.00;;;28.70;45.50;;;;;;7391179;19;20699;-81
2022/05/09 11:56:08;;;;;;;4.22;2.35;;;29.20;45.70;;;;;;7386296;19;20340;-81
2022/05/09 11:58:36;;;;;;;3.08;2.00;;;29.60;48.80;;;;;;7388735;19;20337;-83
2022/05/09 12:01:02;;;;;;;3.65;1.88;;;29.80;46.50;;;;;;7377198;19;20316;-79
2022/05/09 12:03:51;;;;;;;2.40;1.90;;;29.90;45.30;;;;;;7377489;19;20311;-80
2022/05/09 12:06:37;;;;;;;3.72;1.92;;;28.80;43.70;;;;;;7260639;19;2004498;-82
2022/05/09 12:09:09;;;;;;;1.67;1.58;;;27.10;42.50;;;;;;7394479;19;20337;-80
2022/05/09 12:11:46;;;;;;;2.70;1.70;;;28.10;46.40;;;;;;7389858;19;20344;-82
2022/05/09 12:14:11;;;;;;;3.20;1.90;;;28.80;43.00;;;;;;7395641;19;20369;-83
2022/05/09 12:16:39;;;;;;;2.75;1.95;;;29.30;43.00;;;;;;7385214;19;20325;-82
2022/05/09 12:19:33;;;;;;;3.90;2.00;;;29.60;42.30;;;;;;7389077;19;20324;-81
2022/05/09 12:22:34;;;;;;;2.70;1.90;;;29.70;42.00;;;;;;7280058;19;2004357;-84
2022/05/09 12:25:02;;;;;;;3.15;1.60;;;29.60;43.60;;;;;;7287743;19;2004414;-87
2022/05/09 12:28:03;;;;;;;1.85;1.63;;;30.20;42.50;;;;;;7390870;19;20340;-81
2022/05/09 12:30:35;;;;;;;1.70;1.60;;;30.70;42.70;;;;;;7276671;19;2004585;-82
2022/05/09 12:33:12;;;;;;;1.83;1.67;;;31.20;39.00;;;;;;7381370;19;20316;-80
2022/05/09 12:35:38;;;;;;;1.90;1.70;;;30.90;38.20;;;;;;7382327;19;20324;-84
2022/05/09 12:38:03;;;;;;;2.40;1.88;;;30.90;38.80;;;;;;7385738;19;20412;-82
2022/05/09 12:40:29;;;;;;;2.75;1.88;;;30.50;38.80;;;;;;7394264;19;20946;-82
2022/05/09 12:42:57;;;;;;;5.88;1.90;;;30.40;40.40;;;;;;7390371;19;20308;-86
2022/05/09 12:45:23;;;;;;;2.75;1.83;;;30.20;40.50;;;;;;7388496;19;20866;-83
2022/05/09 12:47:51;;;;;;;1.70;1.60;;;30.70;39.20;;;;;;7391254;19;20331;-85
2022/05/09 12:50:29;;;;;;;3.42;1.60;;;30.50;38.80;;;;;;7392625;19;20329;-85
2022/05/09 12:53:00;;;;;;;4.15;1.60;;;31.10;40.10;;;;;;7390485;19;20844;-82
2022/05/09 12:55:55;;;;;;;2.80;1.63;;;31.50;39.20;;;;;;7382234;19;20309;-81
2022/05/09 12:58:41;;;;;;;2.13;1.53;;;31.90;37.00;;;;;;7282384;19;2004578;-82
2022/05/09 13:01:07;;;;;;;1.85;1.40;;;30.90;37.20;;;;;;7382369;19;20309;-82
2022/05/09 13:03:44;;;;;;;2.60;1.40;;;31.10;36.90;;;;;;7386898;19;20313;-84
2022/05/09 13:06:11;;;;;;;3.15;1.67;;;31.20;35.60;;;;;;7384678;19;20464;-81
2022/05/09 13:08:37;;;;;;;3.33;1.70;;;30.40;34.40;;;;;;7383328;19;20364;-83
2022/05/09 13:11:06;;;;;;;1.60;1.50;;;30.60;34.20;;;;;;7384170;19;20328;-83
2022/05/09 13:13:33;;;;;;;1.60;1.35;;;30.90;35.70;;;;;;7386311;19;21293;-83
2022/05/09 13:15:59;;;;;;;1.70;1.52;;;32.00;37.10;;;;;;7381892;19;20328;-82
2022/05/09 13:18:27;;;;;;;2.30;1.70;;;32.70;35.90;;;;;;7382379;19;20912;-84
2022/05/09 13:21:00;;;;;;;2.10;1.65;;;32.40;33.70;;;;;;7382339;19;21403;-84
2022/05/09 13:23:32;;;;;;;1.75;1.65;;;32.70;36.70;;;;;;7378826;19;20341;-82